Time;durP1;ratioP1;P1;durP2;ratioP2;P2;SDS_P1;SDS_P2;PMS_P1;PMS_P2;Temp;Humidity;BMP_temperature;BMP_pressure;BME280_temperature;BME280_humidity;BME280_pressure;Samples;Min_cycle;Max_cycle;Signal;HPM_P1;HPM_P2
2022/04/27 00:00:21;;;;;;;;;;;;;;;;;;5089370;28;20048;-66
2022/04/27 00:02:47;;;;;;;21.15;10.38;;;;;;;;;;5089483;28;19999;-66
2022/04/27 00:05:13;;;;;;;;;;;;;;;;;;5089089;28;20043;-67
2022/04/27 00:07:40;;;;;;;18.00;10.18;;;;;;;;;;5088450;28;19939;-67
2022/04/27 00:10:06;;;;;;;17.80;9.13;;;;;;;;;;5088734;28;20044;-67
2022/04/27 00:12:34;;;;;;;21.48;9.45;;;;;;;;;;5089463;28;20352;-67
2022/04/27 00:15:00;;;;;;;15.60;9.18;;;;;;;;;;5089563;28;20047;-67
2022/04/27 00:17:26;;;;;;;21.35;10.13;;;;;;;;;;5088640;28;20051;-67
2022/04/27 00:19:52;;;;;;;18.60;10.00;;;;;;;;;;5088587;28;20127;-66
2022/04/27 00:22:19;;;;;;;21.88;10.45;;;;;;;;;;5088471;28;20106;-67
2022/04/27 00:24:45;;;;;;;19.75;10.57;;;;;;;;;;5087663;28;20044;-67
2022/04/27 00:27:11;;;;;;;26.15;10.95;;;;;;;;;;5087104;28;20199;-67
2022/04/27 00:29:37;;;;;;;19.70;10.88;;;;;;;;;;5068878;28;20067;-67
2022/04/27 00:32:03;;;;;;;23.00;10.70;;;;;;;;;;5084894;28;20144;-67
2022/04/27 00:34:30;;;;;;;18.30;10.88;;;;;;;;;;5078515;28;20043;-67
2022/04/27 00:36:56;;;;;;;19.45;10.65;;;;;;;;;;5089102;28;20048;-67
2022/04/27 00:39:22;;;;;;;22.30;11.35;;;;;;;;;;5081702;28;20483;-67
2022/04/27 00:42:00;;;;;;;20.95;10.65;;;;;;;;;;5083782;28;20120;-68
2022/04/27 00:44:31;;;;;;;23.00;11.95;;;;;;;;;;5084891;28;20123;-67
2022/04/27 00:46:57;;;;;;;22.85;12.10;;;;;;;;;;5074300;28;20099;-67
2022/04/27 00:49:23;;;;;;;22.42;11.60;;;;;;;;;;5073965;28;20040;-67
2022/04/27 00:51:50;;;;;;;21.33;11.55;;;;;;;;;;5084552;28;20044;-68
2022/04/27 00:54:16;;;;;;;;;;;;;;;;;;5085850;28;20068;-67
2022/04/27 00:56:43;;;;;;;22.20;11.25;;;;;;;;;;5087768;28;19936;-67
2022/04/27 00:59:09;;;;;;;21.42;10.88;;;;;;;;;;5086498;28;20130;-67
2022/04/27 01:01:35;;;;;;;21.00;10.45;;;;;;;;;;5072048;28;20044;-67
2022/04/27 01:04:01;;;;;;;;;;;;;;;;;;5084663;28;20088;-68
2022/04/27 01:06:29;;;;;;;21.05;11.02;;;;;;;;;;5089632;28;19916;-67
2022/04/27 01:08:55;;;;;;;24.25;10.88;;;;;;;;;;5087823;28;20079;-67
2022/04/27 01:11:21;;;;;;;20.40;10.73;;;;;;;;;;5084607;28;20109;-67
2022/04/27 01:13:47;;;;;;;20.45;10.10;;;;;;;;;;5079469;28;20037;-67
2022/04/27 01:16:13;;;;;;;17.48;9.18;;;;;;;;;;5083115;28;20048;-67
2022/04/27 01:18:39;;;;;;;16.98;8.38;;;;;;;;;;5071066;28;20110;-67
2022/04/27 01:21:06;;;;;;;14.30;7.13;;;;;;;;;;5070485;28;20052;-66
2022/04/27 01:23:32;;;;;;;15.75;6.85;;;;;;;;;;5088348;28;20055;-67
2022/04/27 01:26:05;;;;;;;17.65;7.32;;;;;;;;;;5088670;28;20428;-67
2022/04/27 01:28:32;;;;;;;15.38;6.60;;;;;;;;;;5085648;28;20331;-67
2022/04/27 01:31:03;;;;;;;16.88;6.78;;;;;;;;;;5089538;28;20441;-67
2022/04/27 01:33:30;;;;;;;13.10;5.72;;;;;;;;;;5092159;28;20111;-67
2022/04/27 01:35:58;;;;;;;16.35;6.10;;;;;;;;;;5091005;28;20115;-67
2022/04/27 01:38:24;;;;;;;14.68;5.68;;;;;;;;;;5091335;28;20113;-67
2022/04/27 01:40:53;;;;;;;12.48;5.30;;;;;;;;;;5092835;28;20411;-67
2022/04/27 01:43:19;;;;;;;13.50;5.22;;;;;;;;;;5091552;28;20112;-67
2022/04/27 01:45:46;;;;;;;11.68;4.50;;;;;;;;;;5087510;28;20044;-68
2022/04/27 01:48:12;;;;;;;17.02;5.20;;;;;;;;;;5071679;28;20045;-67
2022/04/27 01:50:38;;;;;;;;;;;;;;;;;;5082143;28;20406;-67
2022/04/27 01:55:50;;;;;;;13.63;6.03;;;;;;;;;;5092209;28;20078;-67
2022/04/27 01:58:16;;;;;;;13.32;5.82;;;;;;;;;;5089508;28;20044;-67
2022/04/27 02:00:42;;;;;;;12.43;5.55;;;;;;;;;;5090489;28;20070;-67
2022/04/27 02:03:08;;;;;;;13.35;5.47;;;;;;;;;;5092158;28;20044;-67
2022/04/27 02:05:34;;;;;;;17.00;6.07;;;;;;;;;;5091653;28;20126;-66
2022/04/27 02:08:01;;;;;;;15.23;6.18;;;;;;;;;;5083812;28;20525;-66
2022/04/27 02:10:27;;;;;;;15.00;5.90;;;;;;;;;;5073392;28;20059;-67
2022/04/27 02:12:53;;;;;;;12.52;5.72;;;;;;;;;;5090498;28;20131;-67
2022/04/27 02:15:19;;;;;;;13.88;6.22;;;;;;;;;;5090604;28;20055;-67
2022/04/27 02:17:45;;;;;;;16.85;6.20;;;;;;;;;;5090989;28;20092;-67
2022/04/27 02:20:11;;;;;;;14.18;6.13;;;;;;;;;;5091735;28;20044;-67
2022/04/27 02:22:37;;;;;;;;;;;;;;;;;;5091669;28;20083;-67
2022/04/27 02:25:04;;;;;;;13.13;6.32;;;;;;;;;;5091412;28;20346;-66
2022/04/27 02:27:30;;;;;;;16.20;6.18;;;;;;;;;;5087638;28;20238;-67
2022/04/27 02:29:56;;;;;;;15.35;5.60;;;;;;;;;;5069879;28;20075;-67
2022/04/27 02:32:23;;;;;;;12.40;5.40;;;;;;;;;;5087382;28;20044;-67
2022/04/27 02:34:51;;;;;;;21.20;6.30;;;;;;;;;;5089671;28;20127;-67
2022/04/27 02:37:17;;;;;;;13.73;5.45;;;;;;;;;;5091484;28;20127;-66
2022/04/27 02:39:43;;;;;;;16.75;5.68;;;;;;;;;;5072756;28;20115;-66
2022/04/27 02:42:09;;;;;;;14.68;5.82;;;;;;;;;;5090423;28;20051;-66
2022/04/27 02:44:36;;;;;;;14.32;5.90;;;;;;;;;;5090669;28;20109;-67
2022/04/27 02:47:02;;;;;;;15.63;5.45;;;;;;;;;;5089603;28;20059;-67
2022/04/27 02:52:13;;;;;;;11.68;5.68;;;;;;;;;;5070976;28;20052;-67
2022/04/27 02:54:39;;;;;;;;;;;;;;;;;;5070437;28;20539;-67
2022/04/27 02:57:06;;;;;;;12.52;5.63;;;;;;;;;;5070581;28;20295;-67
2022/04/27 02:59:32;;;;;;;10.95;5.22;;;;;;;;;;5070717;28;20041;-66
2022/04/27 03:01:58;;;;;;;13.20;5.18;;;;;;;;;;5070771;28;20049;-66
2022/04/27 03:04:24;;;;;;;12.90;5.65;;;;;;;;;;5069966;28;20197;-66
2022/04/27 03:06:50;;;;;;;12.43;4.88;;;;;;;;;;5091259;28;20345;-66
2022/04/27 03:09:17;;;;;;;11.77;4.80;;;;;;;;;;5089770;28;20111;-66
2022/04/27 03:11:43;;;;;;;11.63;5.05;;;;;;;;;;5088740;28;20050;-66
2022/04/27 03:14:09;;;;;;;11.38;4.78;;;;;;;;;;5087040;28;20115;-67
2022/04/27 03:16:35;;;;;;;12.65;4.93;;;;;;;;;;5077224;28;20075;-66
2022/04/27 03:19:01;;;;;;;11.75;5.03;;;;;;;;;;5090619;28;20048;-66
2022/04/27 03:21:29;;;;;;;12.77;4.82;;;;;;;;;;5080829;28;20048;-67
2022/04/27 03:23:56;;;;;;;14.90;4.72;;;;;;;;;;5109888;28;20151;-66
2022/04/27 03:26:22;;;;;;;12.18;4.60;;;;;;;;;;5110799;28;20050;-66
2022/04/27 03:28:48;;;;;;;12.20;4.30;;;;;;;;;;5110523;28;20111;-67
2022/04/27 03:31:14;;;;;;;12.85;4.57;;;;;;;;;;5107707;28;20044;-67
2022/04/27 03:33:40;;;;;;;14.60;4.75;;;;;;;;;;5084657;28;20063;-67
2022/04/27 03:36:08;;;;;;;12.95;4.53;;;;;;;;;;5090245;28;20125;-67
2022/04/27 03:38:35;;;;;;;13.20;4.78;;;;;;;;;;5089954;28;20074;-67
2022/04/27 03:41:01;;;;;;;11.23;4.28;;;;;;;;;;5090075;28;20044;-67
2022/04/27 03:43:27;;;;;;;;;;;;;;;;;;5089370;28;20135;-66
2022/04/27 03:45:54;;;;;;;14.82;6.00;;;;;;;;;;5087254;28;20026;-67
2022/04/27 03:48:20;;;;;;;14.68;6.10;;;;;;;;;;5081392;28;20056;-67
2022/04/27 03:50:46;;;;;;;13.38;6.60;;;;;;;;;;5078540;28;20214;-67
2022/04/27 03:53:12;;;;;;;12.68;5.85;;;;;;;;;;5087603;28;20063;-67
2022/04/27 03:55:38;;;;;;;14.38;5.45;;;;;;;;;;5088264;28;20151;-67
2022/04/27 03:58:04;;;;;;;15.00;6.35;;;;;;;;;;5087791;28;20127;-67
2022/04/27 04:00:31;;;;;;;13.88;6.38;;;;;;;;;;5085753;28;20089;-68
2022/04/27 04:03:00;;;;;;;21.80;7.80;;;;;;;;;;5086327;28;20105;-67
2022/04/27 04:05:27;;;;;;;17.48;7.03;;;;;;;;;;5073508;28;20156;-67
2022/04/27 04:07:53;;;;;;;12.43;6.10;;;;;;;;;;5085547;28;20514;-67
2022/04/27 04:10:19;;;;;;;12.45;6.03;;;;;;;;;;5068958;28;20045;-67
2022/04/27 04:12:45;;;;;;;12.95;6.32;;;;;;;;;;5068356;28;20214;-67
2022/04/27 04:15:11;;;;;;;;;;;;;;;;;;5086830;28;20043;-67
2022/04/27 04:17:40;;;;;;;15.02;6.00;;;;;;;;;;5087339;28;19942;-67
2022/04/27 04:20:06;;;;;;;15.52;5.90;;;;;;;;;;5084151;28;20200;-67
2022/04/27 04:22:32;;;;;;;;;;;;;;;;;;5088810;28;20047;-67
2022/04/27 04:30:28;;;;;;;14.13;5.72;;;;;;;;;;5081989;28;20444;-67
2022/04/27 04:32:54;;;;;;;13.48;6.03;;;;;;;;;;5088354;28;20083;-67
2022/04/27 04:35:20;;;;;;;12.90;6.35;;;;;;;;;;5083816;28;20048;-67
2022/04/27 04:37:46;;;;;;;15.88;6.78;;;;;;;;;;5070116;28;20066;-67
2022/04/27 04:40:12;;;;;;;12.20;5.80;;;;;;;;;;5079446;28;20055;-67
2022/04/27 04:42:38;;;;;;;14.35;6.22;;;;;;;;;;5067964;28;20098;-67
2022/04/27 04:45:04;;;;;;;13.25;6.95;;;;;;;;;;5068396;28;20036;-67
2022/04/27 04:47:30;;;;;;;;;;;;;;;;;;5069108;28;20048;-67
2022/04/27 04:49:56;;;;;;;14.75;6.43;;;;;;;;;;5067603;28;19986;-67
2022/04/27 04:52:22;;;;;;;13.85;7.05;;;;;;;;;;5099914;28;20106;-67
2022/04/27 04:54:48;;;;;;;13.20;6.65;;;;;;;;;;5065617;28;20053;-67
2022/04/27 04:57:15;;;;;;;12.40;7.10;;;;;;;;;;5068664;28;20425;-67
2022/04/27 04:59:41;;;;;;;15.07;6.97;;;;;;;;;;5067638;28;20127;-67
2022/04/27 05:02:07;;;;;;;15.23;7.03;;;;;;;;;;5068098;28;20070;-67
2022/04/27 05:04:33;;;;;;;15.73;6.97;;;;;;;;;;5066638;28;20052;-67
2022/04/27 05:06:59;;;;;;;15.43;6.85;;;;;;;;;;5074413;28;20071;-67
2022/04/27 05:09:25;;;;;;;14.40;6.68;;;;;;;;;;5087138;28;20036;-67
2022/04/27 05:11:51;;;;;;;15.05;6.85;;;;;;;;;;5084753;28;20522;-67
2022/04/27 05:14:17;;;;;;;15.98;6.80;;;;;;;;;;5088070;28;20364;-67
2022/04/27 05:16:43;;;;;;;14.43;6.80;;;;;;;;;;5083915;28;20040;-67
2022/04/27 05:19:09;;;;;;;13.18;6.70;;;;;;;;;;5066518;28;20075;-67
2022/04/27 05:21:35;;;;;;;13.63;6.82;;;;;;;;;;5049746;28;20102;-67
2022/04/27 05:24:01;;;;;;;16.65;7.22;;;;;;;;;;5066521;28;20438;-67
2022/04/27 05:26:27;;;;;;;13.30;5.90;;;;;;;;;;5067170;28;20445;-67
2022/04/27 05:34:23;;;;;;;13.18;5.68;;;;;;;;;;5087494;28;20060;-67
2022/04/27 05:36:50;;;;;;;;;;;;;;;;;;5081033;28;20476;-67
2022/04/27 05:39:17;;;;;;;13.90;6.13;;;;;;;;;;5110092;28;19924;-67
2022/04/27 05:41:43;;;;;;;12.23;4.80;;;;;;;;;;5065112;28;20045;-67
2022/04/27 05:44:09;;;;;;;11.18;5.00;;;;;;;;;;5068204;28;20052;-67
2022/04/27 05:46:41;;;;;;;12.18;4.97;;;;;;;;;;5079248;28;20047;-67
2022/04/27 05:49:07;;;;;;;9.85;4.47;;;;;;;;;;5085499;28;20397;-67
2022/04/27 05:51:34;;;;;;;11.50;4.18;;;;;;;;;;5086156;28;20047;-66
2022/04/27 05:54:00;;;;;;;11.82;4.22;;;;;;;;;;5086641;28;20059;-67
2022/04/27 05:56:27;;;;;;;13.90;4.72;;;;;;;;;;5050601;28;20048;-67
2022/04/27 05:58:53;;;;;;;12.90;5.00;;;;;;;;;;5083701;28;20121;-67
2022/04/27 06:01:19;;;;;;;11.45;4.95;;;;;;;;;;5076786;28;20040;-67
2022/04/27 06:03:46;;;;;;;12.05;5.40;;;;;;;;;;5065418;28;20048;-67
2022/04/27 06:06:12;;;;;;;13.85;5.20;;;;;;;;;;5075839;28;20135;-67
2022/04/27 06:08:38;;;;;;;14.13;5.70;;;;;;;;;;5082905;28;20048;-68
2022/04/27 06:11:04;;;;;;;12.45;5.30;;;;;;;;;;5086789;28;20619;-67
2022/04/27 06:13:31;;;;;;;9.75;4.10;;;;;;;;;;5082728;28;20465;-67
2022/04/27 06:15:57;;;;;;;9.68;4.50;;;;;;;;;;5078778;28;20052;-67
2022/04/27 06:18:23;;;;;;;10.80;4.43;;;;;;;;;;5088834;28;20123;-67
2022/04/27 06:20:52;;;;;;;10.75;4.50;;;;;;;;;;5085730;28;20126;-67
2022/04/27 06:23:18;;;;;;;11.25;5.03;;;;;;;;;;5090741;28;20490;-67
2022/04/27 06:25:47;;;;;;;12.35;4.90;;;;;;;;;;5089461;28;20071;-67
2022/04/27 06:28:14;;;;;;;13.45;5.70;;;;;;;;;;5090772;28;20052;-68
2022/04/27 06:30:40;;;;;;;12.73;5.20;;;;;;;;;;5085683;28;20483;-67
2022/04/27 06:33:06;;;;;;;13.07;5.05;;;;;;;;;;5077443;28;20048;-67
2022/04/27 06:35:33;;;;;;;14.27;5.63;;;;;;;;;;5085930;28;20067;-67
2022/04/27 06:37:59;;;;;;;;;;;;;;;;;;5090580;28;20040;-67
2022/04/27 06:40:25;;;;;;;12.55;5.15;;;;;;;;;;5089432;28;19920;-67
2022/04/27 06:42:52;;;;;;;10.43;4.47;;;;;;;;;;5071045;28;20377;-68
2022/04/27 06:45:18;;;;;;;10.18;4.03;;;;;;;;;;5072333;28;20048;-68
2022/04/27 06:47:44;;;;;;;11.35;4.32;;;;;;;;;;5090343;28;20048;-67
2022/04/27 06:50:13;;;;;;;13.18;4.88;;;;;;;;;;5086340;28;20121;-68
2022/04/27 06:52:41;;;;;;;10.25;3.80;;;;;;;;;;5086204;28;20044;-67
2022/04/27 06:55:07;;;;;;;11.48;4.20;;;;;;;;;;5088192;28;20492;-67
2022/04/27 06:57:33;;;;;;;11.30;3.90;;;;;;;;;;5081821;28;20128;-67
2022/04/27 06:59:59;;;;;;;11.00;3.75;;;;;;;;;;5071093;28;20044;-68
2022/04/27 07:02:25;;;;;;;11.00;4.35;;;;;;;;;;5076065;28;20380;-68
2022/04/27 07:04:59;;;;;;;11.20;3.67;;;;;;;;;;5081557;28;20045;-67
2022/04/27 07:07:25;;;;;;;9.30;3.42;;;;;;;;;;5071268;28;20044;-67
2022/04/27 07:09:51;;;;;;;11.48;4.07;;;;;;;;;;5083300;28;20127;-67
2022/04/27 07:12:17;;;;;;;13.35;3.80;;;;;;;;;;5076182;28;20040;-67
2022/04/27 07:14:43;;;;;;;10.52;4.00;;;;;;;;;;5074166;28;20045;-67
2022/04/27 07:17:09;;;;;;;10.15;3.65;;;;;;;;;;5075039;28;20060;-68
2022/04/27 07:19:35;;;;;;;9.75;3.50;;;;;;;;;;5084083;28;20051;-67
2022/04/27 07:22:02;;;;;;;11.27;3.63;;;;;;;;;;5076942;28;20197;-68
2022/04/27 07:24:28;;;;;;;13.10;3.60;;;;;;;;;;5071376;28;20132;-67
2022/04/27 07:26:56;;;;;;;11.90;4.05;;;;;;;;;;5075739;28;20464;-65
2022/04/27 07:29:22;;;;;;;12.70;4.22;;;;;;;;;;5084274;28;20388;-67
2022/04/27 07:31:48;;;;;;;13.85;4.00;;;;;;;;;;5078069;28;20044;-68
2022/04/27 07:34:14;;;;;;;8.95;3.50;;;;;;;;;;5080443;28;20063;-67
2022/04/27 07:36:40;;;;;;;9.70;3.80;;;;;;;;;;5070303;28;20472;-68
2022/04/27 07:39:06;;;;;;;10.45;3.75;;;;;;;;;;5080983;28;20112;-68
2022/04/27 07:41:33;;;;;;;10.00;3.33;;;;;;;;;;5068819;28;20040;-67
2022/04/27 07:43:59;;;;;;;;;;;;;;;;;;5075618;28;20052;-67
2022/04/27 07:46:25;;;;;;;11.88;3.50;;;;;;;;;;5077959;28;19994;-69
2022/04/27 07:48:54;;;;;;;11.73;3.40;;;;;;;;;;5068115;28;20524;-70
2022/04/27 07:51:21;;;;;;;10.98;3.60;;;;;;;;;;5070925;28;20040;-69
2022/04/27 07:53:48;;;;;;;12.70;3.92;;;;;;;;;;5082931;28;20387;-70
2022/04/27 07:56:14;;;;;;;12.70;3.55;;;;;;;;;;5078154;28;20467;-70
2022/04/27 07:58:40;;;;;;;16.45;4.85;;;;;;;;;;5078280;28;20132;-69
2022/04/27 08:01:06;;;;;;;20.35;4.65;;;;;;;;;;5088339;28;20138;-67
2022/04/27 08:03:32;;;;;;;31.40;5.57;;;;;;;;;;5087728;28;20048;-67
2022/04/27 08:06:01;;;;;;;16.60;4.18;;;;;;;;;;5076093;28;20043;-67
2022/04/27 08:08:27;;;;;;;16.30;4.88;;;;;;;;;;5087226;28;20056;-67
2022/04/27 08:10:53;;;;;;;16.30;4.85;;;;;;;;;;5076178;28;20059;-68
2022/04/27 08:13:20;;;;;;;16.13;5.03;;;;;;;;;;5088328;28;20071;-67
2022/04/27 08:15:46;;;;;;;15.60;4.95;;;;;;;;;;5078074;28;20091;-66
2022/04/27 08:18:12;;;;;;;40.13;6.57;;;;;;;;;;5080076;28;20499;-67
2022/04/27 08:23:28;;;;;;;16.50;5.13;;;;;;;;;;5067075;28;20046;-67
2022/04/27 08:25:55;;;;;;;13.85;5.05;;;;;;;;;;5071400;28;20060;-71
2022/04/27 08:28:21;;;;;;;;;;;;;;;;;;5086942;28;20398;-70
2022/04/27 08:30:48;;;;;;;42.80;7.97;;;;;;;;;;5082658;28;19924;-69
2022/04/27 08:33:15;;;;;;;18.80;5.05;;;;;;;;;;5076209;28;20088;-69
2022/04/27 08:35:41;;;;;;;33.05;5.65;;;;;;;;;;5082571;28;20040;-69
2022/04/27 08:38:07;;;;;;;;;;;;;;;;;;5082105;28;20063;-69
2022/04/27 08:40:37;;;;;;;402.00;32.70;;;;;;;;;;5087412;28;19923;-68
2022/04/27 08:43:03;;;;;;;28.67;7.53;;;;;;;;;;5075860;28;20070;-67
2022/04/27 08:45:30;;;;;;;37.10;6.78;;;;;;;;;;5088259;28;20061;-70
2022/04/27 08:47:56;;;;;;;;;;;;;;;;;;5086795;28;20048;-68
2022/04/27 08:50:23;;;;;;;79.63;10.32;;;;;;;;;;5087418;28;20332;-69
2022/04/27 08:52:49;;;;;;;36.75;9.48;;;;;;;;;;5087721;28;20043;-69
2022/04/27 08:55:16;;;;;;;31.55;6.60;;;;;;;;;;5087143;28;20082;-70
2022/04/27 08:57:43;;;;;;;;;;;;;;;;;;5083434;28;20052;-69
2022/04/27 09:00:10;;;;;;;28.27;5.53;;;;;;;;;;5079293;28;19931;-68
2022/04/27 09:02:36;;;;;;;17.20;4.30;;;;;;;;;;5096532;28;20212;-69
2022/04/27 09:05:05;;;;;;;231.68;19.33;;;;;;;;;;5089465;28;20087;-70
2022/04/27 09:07:38;;;;;;;132.65;10.75;;;;;;;;;;5088050;28;20059;-68
2022/04/27 09:10:05;;;;;;;40.85;7.38;;;;;;;;;;5088077;28;20052;-70
2022/04/27 09:12:31;;;;;;;21.23;5.03;;;;;;;;;;5087866;28;20201;-69
2022/04/27 09:15:08;;;;;;;22.15;5.10;;;;;;;;;;5084271;28;20120;-69
2022/04/27 09:23:04;;;;;;;17.73;5.55;;;;;;;;;;5085993;28;20052;-69
2022/04/27 09:25:31;;;;;;;;;;;;;;;;;;5086609;28;20424;-69
2022/04/27 09:27:57;;;;;;;19.85;5.10;;;;;;;;;;5086879;28;20011;-68
2022/04/27 09:30:26;;;;;;;23.17;5.22;;;;;;;;;;5080368;28;20051;-66
2022/04/27 09:32:52;;;;;;;20.33;5.57;;;;;;;;;;5068018;28;20407;-67
2022/04/27 09:35:32;;;;;;;18.15;5.38;;;;;;;;;;5067629;28;20040;-68
2022/04/27 09:38:19;;;;;;;21.48;5.20;;;;;;;;;;5066073;28;20044;-69
2022/04/27 09:40:52;;;;;;;17.70;5.40;;;;;;;;;;5068322;28;20273;-69
2022/04/27 09:43:39;;;;;;;21.48;5.30;;;;;;;;;;5068198;28;20059;-70
2022/04/27 09:46:20;;;;;;;17.77;5.20;;;;;;;;;;5066078;28;20118;-69
2022/04/27 09:48:46;;;;;;;24.80;5.53;;;;;;;;;;5081133;28;20055;-68
2022/04/27 09:51:12;;;;;;;;;;;;;;;;;;5075973;28;20061;-68
2022/04/27 09:53:41;;;;;;;17.55;5.70;;;;;;;;;;5082354;28;20350;-68
2022/04/27 09:56:11;;;;;;;20.25;5.85;;;;;;;;;;5084994;28;20429;-68
2022/04/27 09:58:43;;;;;;;16.40;5.00;;;;;;;;;;5080533;28;20040;-70
2022/04/27 10:01:11;;;;;;;17.75;5.20;;;;;;;;;;5080725;28;20135;-70
2022/04/27 10:03:39;;;;;;;15.95;5.15;;;;;;;;;;5085612;28;20052;-69
2022/04/27 10:06:06;;;;;;;21.60;4.82;;;;;;;;;;5088682;28;20059;-67
2022/04/27 10:08:36;;;;;;;20.63;5.10;;;;;;;;;;5088809;28;20228;-68
2022/04/27 10:11:04;;;;;;;20.73;5.43;;;;;;;;;;5086508;28;20071;-69
2022/04/27 10:13:30;;;;;;;16.52;4.60;;;;;;;;;;5088991;28;20083;-68
2022/04/27 10:15:56;;;;;;;16.55;4.38;;;;;;;;;;5087939;28;20367;-67
2022/04/27 10:18:22;;;;;;;19.67;5.53;;;;;;;;;;5089687;28;20050;-68
2022/04/27 10:20:50;;;;;;;18.35;4.38;;;;;;;;;;5092486;28;20044;-68
2022/04/27 10:23:21;;;;;;;16.63;4.45;;;;;;;;;;5112680;27;20048;-68
2022/04/27 10:26:06;;;;;;;20.08;4.97;;;;;;;;;;5090040;28;20127;-67
2022/04/27 10:28:34;;;;;;;15.80;4.25;;;;;;;;;;5089032;28;20059;-68
2022/04/27 10:31:02;;;;;;;16.30;4.43;;;;;;;;;;5089447;28;20074;-67
2022/04/27 10:33:49;;;;;;;22.23;5.03;;;;;;;;;;5081820;28;20101;-68
2022/04/27 10:36:47;;;;;;;21.30;4.63;;;;;;;;;;5083332;28;20060;-69
2022/04/27 10:39:14;;;;;;;22.77;5.10;;;;;;;;;;5073960;28;20055;-68
2022/04/27 10:41:40;;;;;;;19.80;6.03;;;;;;;;;;5084451;28;20155;-67
2022/04/27 10:44:06;;;;;;;18.23;5.05;;;;;;;;;;5086183;28;20117;-67
2022/04/27 10:46:39;;;;;;;18.40;5.32;;;;;;;;;;5083443;28;20057;-69
2022/04/27 10:49:24;;;;;;;27.85;6.13;;;;;;;;;;5082130;28;20048;-68
2022/04/27 10:52:06;;;;;;;25.02;5.07;;;;;;;;;;5070907;28;20523;-69
2022/04/27 10:54:34;;;;;;;17.33;5.18;;;;;;;;;;5071835;28;20121;-67
2022/04/27 10:57:16;;;;;;;21.05;5.38;;;;;;;;;;5070686;28;20506;-68
2022/04/27 10:59:59;;;;;;;18.73;5.00;;;;;;;;;;5073979;28;21369;-67
2022/04/27 11:02:36;;;;;;;22.88;5.25;;;;;;;;;;5080316;28;20047;-68
2022/04/27 11:05:18;;;;;;;19.92;5.45;;;;;;;;;;5078815;28;20040;-68
2022/04/27 11:07:53;;;;;;;19.35;4.68;;;;;;;;;;5081975;28;20051;-68
2022/04/27 11:10:24;;;;;;;16.92;4.93;;;;;;;;;;5074575;28;20488;-67
2022/04/27 11:13:01;;;;;;;15.88;4.68;;;;;;;;;;5071384;28;20417;-68
2022/04/27 11:15:27;;;;;;;17.10;4.20;;;;;;;;;;5072488;28;20460;-66
2022/04/27 11:18:00;;;;;;;17.60;4.50;;;;;;;;;;5070593;28;20429;-67
2022/04/27 11:20:32;;;;;;;20.95;4.43;;;;;;;;;;5070624;28;20476;-68
2022/04/27 11:22:59;;;;;;;22.30;5.25;;;;;;;;;;5078950;28;20109;-68
2022/04/27 11:25:29;;;;;;;15.13;4.75;;;;;;;;;;5068752;28;20044;-68
2022/04/27 11:27:56;;;;;;;16.05;4.60;;;;;;;;;;5090485;28;20044;-68
2022/04/27 11:30:22;;;;;;;18.95;5.05;;;;;;;;;;5089426;28;20044;-68
2022/04/27 11:32:49;;;;;;;22.80;5.07;;;;;;;;;;5090953;28;20152;-67
2022/04/27 11:35:16;;;;;;;19.20;4.55;;;;;;;;;;5072281;28;20044;-67
2022/04/27 11:37:42;;;;;;;21.50;5.28;;;;;;;;;;5070432;28;20053;-68
2022/04/27 11:40:15;;;;;;;17.50;4.60;;;;;;;;;;5083523;28;20039;-68
2022/04/27 11:42:42;;;;;;;19.63;4.85;;;;;;;;;;5078974;28;20043;-70
2022/04/27 11:45:08;;;;;;;23.23;4.93;;;;;;;;;;5068555;28;20063;-68
2022/04/27 11:47:34;;;;;;;20.05;4.75;;;;;;;;;;5085732;28;20208;-69
2022/04/27 11:50:02;;;;;;;16.95;4.93;;;;;;;;;;5080505;28;20040;-67
2022/04/27 11:52:30;;;;;;;15.40;3.88;;;;;;;;;;5090301;28;20044;-69
2022/04/27 11:55:23;;;;;;;18.50;4.95;;;;;;;;;;5083420;28;20484;-68
2022/04/27 11:57:49;;;;;;;14.90;4.82;;;;;;;;;;5076100;28;20470;-68
2022/04/27 12:00:22;;;;;;;21.40;4.78;;;;;;;;;;5089457;28;20126;-71
2022/04/27 12:02:48;;;;;;;18.23;4.50;;;;;;;;;;5072153;28;20106;-71
2022/04/27 12:05:15;;;;;;;;;;;;;;;;;;5071165;28;20037;-67
2022/04/27 12:07:42;;;;;;;15.77;4.30;;;;;;;;;;5071284;28;19963;-68
2022/04/27 12:10:14;;;;;;;16.90;4.57;;;;;;;;;;5075678;28;20079;-69
2022/04/27 12:12:40;;;;;;;18.17;4.80;;;;;;;;;;5086578;28;20139;-68
2022/04/27 12:15:08;;;;;;;15.85;4.03;;;;;;;;;;5084336;28;20080;-68
2022/04/27 12:17:41;;;;;;;20.75;4.72;;;;;;;;;;5068379;28;20044;-68
2022/04/27 12:20:07;;;;;;;20.45;4.47;;;;;;;;;;5070244;28;20463;-68
2022/04/27 12:22:33;;;;;;;16.73;4.43;;;;;;;;;;5075981;28;20052;-68
2022/04/27 12:25:07;;;;;;;16.52;4.32;;;;;;;;;;5067349;28;20473;-68
2022/04/27 12:27:33;;;;;;;12.52;4.32;;;;;;;;;;5086738;28;20048;-68
2022/04/27 12:30:06;;;;;;;13.43;4.10;;;;;;;;;;5088366;28;20067;-70
2022/04/27 12:32:32;;;;;;;16.33;4.10;;;;;;;;;;5077661;28;20429;-69
2022/04/27 12:37:46;;;;;;;15.65;4.70;;;;;;;;;;5069612;28;19921;-68
2022/04/27 12:40:15;;;;;;;14.57;5.53;;;;;;;;;;5070057;28;20053;-67
2022/04/27 12:43:00;;;;;;;17.38;3.97;;;;;;;;;;5068829;28;20148;-68
2022/04/27 12:45:26;;;;;;;21.65;4.00;;;;;;;;;;5077979;28;20064;-69
2022/04/27 12:47:52;;;;;;;20.85;5.38;;;;;;;;;;5068879;28;20074;-71
2022/04/27 12:50:19;;;;;;;14.15;4.90;;;;;;;;;;5080609;28;20047;-69
2022/04/27 12:52:46;;;;;;;16.60;4.00;;;;;;;;;;5085215;28;20055;-73
2022/04/27 12:55:13;;;;;;;16.10;4.65;;;;;;;;;;5081273;28;20098;-72
2022/04/27 12:57:52;;;;;;;16.20;4.32;;;;;;;;;;5076494;28;20143;-70
2022/04/27 13:00:20;;;;;;;15.98;4.22;;;;;;;;;;5075791;28;20127;-69
2022/04/27 13:02:46;;;;;;;14.13;4.53;;;;;;;;;;5077963;28;20105;-70
2022/04/27 13:05:13;;;;;;;14.88;4.72;;;;;;;;;;5082954;28;20044;-71
2022/04/27 13:07:40;;;;;;;;;;;;;;;;;;5106468;28;20040;-71
2022/04/27 13:12:52;;;;;;;19.55;4.50;;;;;;;;;;5070572;28;20056;-72
2022/04/27 13:15:18;;;;;;;;;;;;;;;;;;5073582;28;20202;-70
2022/04/27 13:17:44;;;;;;;17.92;4.65;;;;;;;;;;5075667;28;19967;-70
2022/04/27 13:20:10;;;;;;;;;;;;;;;;;;5081357;28;20120;-71
2022/04/27 13:22:37;;;;;;;15.65;4.80;;;;;;;;;;5088143;28;19928;-72
2022/04/27 13:25:04;;;;;;;21.27;5.95;;;;;;;;;;5086128;28;20182;-71
2022/04/27 13:27:30;;;;;;;17.23;4.70;;;;;;;;;;5079248;28;20054;-71
2022/04/27 13:29:56;;;;;;;15.00;4.63;;;;;;;;;;5076549;28;20139;-73
2022/04/27 13:32:26;;;;;;;16.88;4.70;;;;;;;;;;5071229;28;20044;-70
2022/04/27 13:34:52;;;;;;;21.20;5.13;;;;;;;;;;5107622;27;20041;-69
2022/04/27 13:37:18;;;;;;;15.15;4.18;;;;;;;;;;5071741;28;20151;-68
2022/04/27 13:39:44;;;;;;;17.33;4.43;;;;;;;;;;5072409;28;20209;-65
2022/04/27 13:42:11;;;;;;;20.70;5.25;;;;;;;;;;5090787;28;20138;-68
2022/04/27 13:44:37;;;;;;;21.13;4.93;;;;;;;;;;5081140;28;20244;-67
2022/04/27 13:47:04;;;;;;;19.65;4.68;;;;;;;;;;5074055;28;20052;-70
2022/04/27 13:49:30;;;;;;;20.85;5.40;;;;;;;;;;5070721;28;20110;-69
2022/04/27 13:51:56;;;;;;;21.48;5.28;;;;;;;;;;5069882;28;20112;-67
2022/04/27 13:54:23;;;;;;;17.38;4.63;;;;;;;;;;5077503;28;20114;-69
2022/04/27 13:56:49;;;;;;;19.30;4.63;;;;;;;;;;5088249;28;20379;-70
2022/04/27 13:59:15;;;;;;;15.80;4.28;;;;;;;;;;5078408;28;20059;-71
2022/04/27 14:01:41;;;;;;;19.65;5.05;;;;;;;;;;5076070;28;20155;-68
2022/04/27 14:04:07;;;;;;;;;;;;;;;;;;5082948;28;20070;-67
2022/04/27 14:06:33;;;;;;;19.85;5.13;;;;;;;;;;5087641;28;20448;-67
2022/04/27 14:08:59;;;;;;;;;;;;;;;;;;5083995;28;20117;-68
2022/04/27 14:14:11;;;;;;;16.48;6.13;;;;;;;;;;5069576;28;20044;-67
2022/04/27 14:19:21;;;;;;;15.57;4.32;;;;;;;;;;5081780;28;19930;-67
2022/04/27 14:21:48;;;;;;;16.77;3.75;;;;;;;;;;5077187;28;20456;-68
2022/04/27 14:24:14;;;;;;;16.83;4.28;;;;;;;;;;5082858;28;20064;-68
2022/04/27 14:26:40;;;;;;;15.38;5.03;;;;;;;;;;5090005;28;20052;-67
2022/04/27 14:29:06;;;;;;;16.45;4.35;;;;;;;;;;5089508;28;20066;-67
2022/04/27 14:31:32;;;;;;;15.30;4.43;;;;;;;;;;5072918;28;20124;-69
2022/04/27 14:33:59;;;;;;;17.67;4.95;;;;;;;;;;5086055;28;20141;-67
2022/04/27 14:36:25;;;;;;;15.23;4.65;;;;;;;;;;5086361;28;20448;-70
2022/04/27 14:38:52;;;;;;;17.45;4.13;;;;;;;;;;5084162;28;20055;-70
2022/04/27 14:41:18;;;;;;;15.52;4.28;;;;;;;;;;5085477;28;20101;-71
2022/04/27 14:43:45;;;;;;;13.50;3.80;;;;;;;;;;5081966;28;20054;-69
2022/04/27 14:46:11;;;;;;;15.63;4.47;;;;;;;;;;5086205;28;20452;-68
2022/04/27 14:48:40;;;;;;;14.73;4.38;;;;;;;;;;5076624;28;20115;-70
2022/04/27 14:51:07;;;;;;;13.13;3.92;;;;;;;;;;5075248;28;20052;-71
2022/04/27 14:53:33;;;;;;;;;;;;;;;;;;5087468;28;20107;-70
2022/04/27 14:55:59;;;;;;;14.25;4.57;;;;;;;;;;5084918;28;19936;-66
2022/04/27 14:58:25;;;;;;;20.58;4.97;;;;;;;;;;5069687;28;20052;-66
2022/04/27 15:00:53;;;;;;;15.05;4.20;;;;;;;;;;5072070;28;20044;-66
2022/04/27 15:03:19;;;;;;;17.20;4.30;;;;;;;;;;5084907;28;20131;-66
2022/04/27 15:05:45;;;;;;;16.98;4.15;;;;;;;;;;5068514;28;20055;-67
2022/04/27 15:08:12;;;;;;;14.52;3.92;;;;;;;;;;5079984;28;20048;-67
2022/04/27 15:10:38;;;;;;;15.70;4.22;;;;;;;;;;5068842;28;20053;-64
2022/04/27 15:13:04;;;;;;;14.90;4.13;;;;;;;;;;5069054;28;20115;-66
2022/04/27 15:15:30;;;;;;;;;;;;;;;;;;5078342;28;20051;-66